Haukur — OZ2119 — position and weather

sailwx.info

Track history (hours):
 
Tides and Currents Weather Stations Pressure Air Temp Water Temp Dewpoint Dewpoint Depression Visibility Wind Speed Wind Dir Waves Ship Positions

Haukur

Last reported at 2017-Feb-21 16:33 UTC. Time now 2017-Feb-21 17:32 UTC.
Position N 55°28' E 012°43'.

Length 75 m; draft 6.2 m.

Type: Cargo ship. MMSI: 231812000.

Date/timePositionNaut miles runAvg speedWind from/ knotsBaromVisibWave heightAir tempDewpointWater temp
2017-Feb-21 16:33N 55°28' E 012°43'8 8.0
2017-Feb-21 15:33N 55°20' E 012°41'7 7.1
2017-Feb-21 14:33N 55°16' E 012°52'8 7.7
2017-Feb-21 13:33N 55°16' E 013°05'7 7.4
2017-Feb-21 12:33N 55°15' E 013°18'7 7.2
2017-Feb-21 11:33N 55°15' E 013°31'7 6.7
2017-Feb-21 10:32N 55°15' E 013°43'6 6.4
2017-Feb-21 09:33N 55°14' E 013°54'7 6.9
2017-Feb-21 08:33N 55°14' E 014°06'6 6.4
2017-Feb-21 07:33N 55°14' E 014°17'7 7.0
2017-Feb-21 06:33N 55°19' E 014°24'7 7.4
2017-Feb-21 05:33N 55°25' E 014°33'7 7.0
2017-Feb-21 04:33N 55°29' E 014°43'7 6.6
2017-Feb-21 03:33N 55°32' E 014°53'6 6.4
2017-Feb-21 02:33N 55°36' E 015°03'6 6.4
2017-Feb-21 01:33N 55°39' E 015°12'6 6.4
2017-Feb-21 00:33N 55°42' E 015°22'7 7.0
2017-Feb-20 23:33N 55°46' E 015°33'7 7.1
2017-Feb-20 22:33N 55°49' E 015°44'6 6.3
2017-Feb-20 21:33N 55°53' E 015°52'7 6.6
2017-Feb-20 20:33N 55°59' E 015°57'7 7.1
2017-Feb-20 19:33N 56°06' E 016°02'8 7.8
2017-Feb-20 18:33N 56°13' E 016°07'8 8.0
2017-Feb-20 17:33N 56°21' E 016°13'8 8.2
2017-Feb-20 16:33N 56°28' E 016°17'9 8.6
2017-Feb-20 15:33N 56°37' E 016°21'3 2.7
2017-Feb-20 14:31N 56°40' E 016°22'0 0.0
2017-Feb-20 13:33N 56°40' E 016°22'0 0.0
2017-Feb-20 12:33N 56°40' E 016°22'0 0.0
2017-Feb-20 11:32N 56°40' E 016°22'0 0.0
2017-Feb-20 10:33N 56°40' E 016°22'0 0.0
2017-Feb-20 09:33N 56°40' E 016°22'0 0.0
2017-Feb-20 08:33N 56°40' E 016°22'0 0.0
2017-Feb-20 07:33N 56°40' E 016°22'0 0.0
2017-Feb-20 06:33N 56°40' E 016°22'0 0.0
2017-Feb-20 05:33N 56°40' E 016°22'1 0.8
2017-Feb-20 04:33N 56°39' E 016°22'6 5.9
2017-Feb-20 03:33N 56°33' E 016°19'5 5.2
2017-Feb-20 02:33N 56°28' E 016°17'5 5.4
2017-Feb-20 01:33N 56°23' E 016°15'5 5.3
2017-Feb-20 00:33N 56°17' E 016°14'5 5.4
2017-Feb-19 23:33N 56°12' E 016°14'4 4.3
2017-Feb-19 22:33N 56°08' E 016°16'3 3.4
2017-Feb-19 21:33N 56°06' E 016°21'6 5.8
2017-Feb-19 20:33N 56°00' E 016°20'5 5.3
2017-Feb-19 19:33N 55°55' E 016°21'8 7.6
2017-Feb-19 18:33N 55°52' E 016°33'8 7.6
2017-Feb-19 17:33N 55°50' E 016°46'8 7.5
2017-Feb-19 16:33N 55°46' E 016°58'55 7.4
2017-Feb-19 09:03N 55°08' E 018°09'4 7.5
2017-Feb-19 08:33N 55°05' E 018°13'8 7.8
2017-Feb-19 07:33N 54°59' E 018°22'8 8.3
2017-Feb-19 06:33N 54°54' E 018°33'9 8.8
2017-Feb-19 05:33N 54°48' E 018°44'9 9.1
2017-Feb-19 04:33N 54°42' E 018°56'8 8.4
2017-Feb-19 03:33N 54°34' E 018°51'9 8.5
2017-Feb-19 02:33N 54°32' E 018°37'3 2.8
2017-Feb-19 01:33N 54°32' E 018°32'0 0.0
2017-Feb-19 00:33N 54°32' E 018°32'0 0.0
2017-Feb-18 23:33N 54°32' E 018°32'0 0.0
2017-Feb-18 22:33N 54°32' E 018°32'0 0.0
2017-Feb-18 21:33N 54°32' E 018°32'0 0.0
2017-Feb-18 20:33N 54°32' E 018°32'0 0.0
2017-Feb-18 19:33N 54°32' E 018°32'0 0.0
2017-Feb-18 18:33N 54°32' E 018°32'0 0.0
2017-Feb-18 17:33N 54°32' E 018°32'0 0.0
2017-Feb-18 16:33N 54°32' E 018°32'0 0.0
2017-Feb-18 15:33N 54°32' E 018°32'0 0.0
2017-Feb-18 14:33N 54°32' E 018°32'0 0.0
2017-Feb-18 13:32N 54°32' E 018°32'0 0.0
2017-Feb-18 12:32N 54°32' E 018°32'0 0.0
2017-Feb-18 11:32N 54°32' E 018°32'0 0.0
2017-Feb-18 10:32N 54°32' E 018°32'0 0.0
2017-Feb-18 09:32N 54°32' E 018°32'0 0.0
2017-Feb-18 08:32N 54°32' E 018°32'0 0.0
2017-Feb-18 07:32N 54°32' E 018°32'0 0.0
2017-Feb-18 06:32N 54°32' E 018°32'0 0.0
2017-Feb-18 05:32N 54°32' E 018°32'0 0.1
2017-Feb-18 04:33N 54°32' E 018°32'7 7.5
2017-Feb-18 03:34N 54°32' E 018°45'8 7.8
2017-Feb-18 02:34N 54°38' E 018°54'7 6.6
2017-Feb-18 01:33N 54°43' E 018°48'9 8.6
2017-Feb-18 00:34N 54°48' E 018°36'9 8.7
2017-Feb-17 23:34N 54°52' E 018°23'8 8.5
2017-Feb-17 22:34N 54°54' E 018°08'103 8.5
2017-Feb-17 10:25N 54°40' E 015°12'8 8.6
2017-Feb-17 09:26N 54°39' E 014°57'9 8.6
2017-Feb-17 08:21N 54°37' E 014°41'18 8.5
2017-Feb-17 06:13N 54°38' E 014°10'710.1
2017-Feb-17 05:34N 54°40' E 013°59'1410.1
2017-Feb-17 04:13N 54°43' E 013°36'2010.4
2017-Feb-17 02:16N 54°41' E 013°01'710.4
2017-Feb-17 01:34N 54°40' E 012°49'1410.6
2017-Feb-17 00:12N 54°34' E 012°26'18 9.9
2017-Feb-16 22:26N 54°24' E 012°01'11 9.7
2017-Feb-16 21:17N 54°26' E 011°43'810.3
2017-Feb-16 20:33N 54°29' E 011°31'1010.5
2017-Feb-16 19:34N 54°34' E 011°14'1010.3
2017-Feb-16 18:34N 54°34' E 010°57'1010.1
2017-Feb-16 17:33N 54°33' E 010°39'50 7.1
2017-Feb-16 10:32N 54°10' E 009°24'8 7.9
2017-Feb-16 09:33N 54°03' E 009°18'8 8.4
2017-Feb-16 08:33N 53°55' E 009°12'4 4.4
2017-Feb-16 07:33N 53°53' E 009°05'7 7.2
2017-Feb-16 06:33N 53°50' E 008°54'8 7.6
2017-Feb-16 05:33N 53°53' E 008°42'8 7.8
2017-Feb-16 04:32N 53°58' E 008°31'9 9.1
2017-Feb-16 03:33N 53°59' E 008°16'1010.0
2017-Feb-16 02:33N 53°58' E 007°59'1110.5
2017-Feb-16 01:27N 53°55' E 007°40'5811.0
2017-Feb-15 20:12N 53°41' E 006°05'34 9.3
2017-Feb-15 16:31N 53°30' E 005°10'8 8.4
2017-Feb-15 15:33N 53°28' E 004°57'19 8.2
2017-Feb-15 13:15N 53°14' E 004°35'6 8.9
2017-Feb-15 12:33N 53°09' E 004°30'9 9.0
2017-Feb-15 11:33N 53°01' E 004°23'9 9.3
2017-Feb-15 10:34N 52°53' E 004°16'10 9.6
2017-Feb-15 09:34N 52°45' E 004°06'1010.0
2017-Feb-15 08:33N 52°38' E 003°55'1110.5
2017-Feb-15 07:33N 52°30' E 003°43'1110.8
2017-Feb-15 06:33N 52°22' E 003°31'1111.1
2017-Feb-15 05:33N 52°14' E 003°19'1111.4
2017-Feb-15 04:32N 52°04' E 003°08'1111.3
2017-Feb-15 03:32N 51°53' E 003°07'9 9.5
2017-Feb-15 02:33N 51°45' E 003°14'9 9.3
2017-Feb-15 01:33N 51°37' E 003°22'8 8.2
2017-Feb-15 00:33N 51°30' E 003°29'7 7.3
2017-Feb-14 23:33N 51°26' E 003°39'9 9.4
2017-Feb-14 22:33N 51°21' E 003°51'7 7.5
2017-Feb-14 21:33N 51°23' E 004°02'10 9.5
2017-Feb-14 20:33N 51°20' E 004°16'3 3.2
2017-Feb-14 19:33N 51°17' E 004°15'0 0.1
2017-Feb-14 18:33N 51°17' E 004°15'1 0.7
2017-Feb-14 17:32N 51°16' E 004°15'0 0.0
2017-Feb-14 16:32N 51°16' E 004°15'0 0.0
2017-Feb-14 15:32N 51°16' E 004°15'0 0.0
2017-Feb-14 14:08N 51°16' E 004°15'0 0.0
2017-Feb-14 13:08N 51°16' E 004°15'0 0.0
2017-Feb-14 12:32N 51°16' E 004°15'0 0.0
2017-Feb-14 11:32N 51°16' E 004°15'0 0.0
2017-Feb-14 10:32N 51°16' E 004°15'0 0.0
2017-Feb-14 09:32N 51°16' E 004°15'0 0.0
2017-Feb-14 07:29N 51°16' E 004°15'0 0.0
2017-Feb-14 05:32N 51°16' E 004°15'0 0.0
2017-Feb-14 03:29N 51°16' E 004°15'0 0.1
2017-Feb-14 02:33N 51°16' E 004°15'1 1.4
2017-Feb-14 01:33N 51°16' E 004°17'6 5.9
2017-Feb-14 00:33N 51°21' E 004°14'7 7.2
2017-Feb-13 23:33N 51°23' E 004°02'5 4.6
2017-Feb-13 22:33N 51°22' E 003°55'7 6.9
2017-Feb-13 21:33N 51°22' E 003°44'6 5.7
2017-Feb-13 20:33N 51°26' E 003°37'6 5.8
2017-Feb-13 19:33N 51°29' E 003°29'7 7.3
2017-Feb-13 18:33N 51°35' E 003°23'8 7.7
2017-Feb-13 17:33N 51°42' E 003°16'6 4.8
2017-Feb-13 16:23N 51°46' E 003°10'3 3.7
2017-Feb-13 15:32N 51°49' E 003°08'4 4.4
2017-Feb-13 14:33N 51°52' E 003°04'8 7.9
2017-Feb-13 13:32N 52°00' E 002°60'8 8.6
2017-Feb-13 12:33N 52°08' E 002°56'9 8.7
2017-Feb-13 11:33N 52°16' E 002°51'39 9.0
2017-Feb-13 07:09N 52°54' E 002°30'5 7.4
2017-Feb-13 06:25N 52°59' E 002°27'6 6.5
2017-Feb-13 05:32N 53°04' E 002°23'6 5.6
2017-Feb-13 04:31N 53°08' E 002°17'6 4.8
2017-Feb-13 03:11N 53°13' E 002°10'  
Track history (hours):
 
Tides and Currents Weather Stations Pressure Air Temp Water Temp Dewpoint Dewpoint Depression Visibility Wind Speed Wind Dir Waves Ship Positions

Haukur

Last reported at 2017-Feb-21 16:33 UTC. Time now 2017-Feb-21 17:32 UTC.
Position N 55°28' E 012°43'.

Length 75 m; draft 6.2 m.

Type: Cargo ship. MMSI: 231812000.

Date/timePositionNaut miles runAvg speedWind from/ knotsBaromVisibWave heightAir tempDewpointWater temp
2017-Feb-21 16:33N 55°28' E 012°43'8 8.0
2017-Feb-21 15:33N 55°20' E 012°41'7 7.1
2017-Feb-21 14:33N 55°16' E 012°52'8 7.7
2017-Feb-21 13:33N 55°16' E 013°05'7 7.4
2017-Feb-21 12:33N 55°15' E 013°18'7 7.2
2017-Feb-21 11:33N 55°15' E 013°31'7 6.7
2017-Feb-21 10:32N 55°15' E 013°43'6 6.4
2017-Feb-21 09:33N 55°14' E 013°54'7 6.9
2017-Feb-21 08:33N 55°14' E 014°06'6 6.4
2017-Feb-21 07:33N 55°14' E 014°17'7 7.0
2017-Feb-21 06:33N 55°19' E 014°24'7 7.4
2017-Feb-21 05:33N 55°25' E 014°33'7 7.0
2017-Feb-21 04:33N 55°29' E 014°43'7 6.6
2017-Feb-21 03:33N 55°32' E 014°53'6 6.4
2017-Feb-21 02:33N 55°36' E 015°03'6 6.4
2017-Feb-21 01:33N 55°39' E 015°12'6 6.4
2017-Feb-21 00:33N 55°42' E 015°22'7 7.0
2017-Feb-20 23:33N 55°46' E 015°33'7 7.1
2017-Feb-20 22:33N 55°49' E 015°44'6 6.3
2017-Feb-20 21:33N 55°53' E 015°52'7 6.6
2017-Feb-20 20:33N 55°59' E 015°57'7 7.1
2017-Feb-20 19:33N 56°06' E 016°02'8 7.8
2017-Feb-20 18:33N 56°13' E 016°07'8 8.0
2017-Feb-20 17:33N 56°21' E 016°13'8 8.2
2017-Feb-20 16:33N 56°28' E 016°17'9 8.6
2017-Feb-20 15:33N 56°37' E 016°21'3 2.7
2017-Feb-20 14:31N 56°40' E 016°22'0 0.0
2017-Feb-20 13:33N 56°40' E 016°22'0 0.0
2017-Feb-20 12:33N 56°40' E 016°22'0 0.0
2017-Feb-20 11:32N 56°40' E 016°22'0 0.0
2017-Feb-20 10:33N 56°40' E 016°22'0 0.0
2017-Feb-20 09:33N 56°40' E 016°22'0 0.0
2017-Feb-20 08:33N 56°40' E 016°22'0 0.0
2017-Feb-20 07:33N 56°40' E 016°22'0 0.0
2017-Feb-20 06:33N 56°40' E 016°22'0 0.0
2017-Feb-20 05:33N 56°40' E 016°22'1 0.8
2017-Feb-20 04:33N 56°39' E 016°22'6 5.9
2017-Feb-20 03:33N 56°33' E 016°19'5 5.2
2017-Feb-20 02:33N 56°28' E 016°17'5 5.4
2017-Feb-20 01:33N 56°23' E 016°15'5 5.3
2017-Feb-20 00:33N 56°17' E 016°14'5 5.4
2017-Feb-19 23:33N 56°12' E 016°14'4 4.3
2017-Feb-19 22:33N 56°08' E 016°16'3 3.4
2017-Feb-19 21:33N 56°06' E 016°21'6 5.8
2017-Feb-19 20:33N 56°00' E 016°20'5 5.3
2017-Feb-19 19:33N 55°55' E 016°21'8 7.6
2017-Feb-19 18:33N 55°52' E 016°33'8 7.6
2017-Feb-19 17:33N 55°50' E 016°46'8 7.5
2017-Feb-19 16:33N 55°46' E 016°58'55 7.4
2017-Feb-19 09:03N 55°08' E 018°09'4 7.5
2017-Feb-19 08:33N 55°05' E 018°13'8 7.8
2017-Feb-19 07:33N 54°59' E 018°22'8 8.3
2017-Feb-19 06:33N 54°54' E 018°33'9 8.8
2017-Feb-19 05:33N 54°48' E 018°44'9 9.1
2017-Feb-19 04:33N 54°42' E 018°56'8 8.4
2017-Feb-19 03:33N 54°34' E 018°51'9 8.5
2017-Feb-19 02:33N 54°32' E 018°37'3 2.8
2017-Feb-19 01:33N 54°32' E 018°32'0 0.0
2017-Feb-19 00:33N 54°32' E 018°32'0 0.0
2017-Feb-18 23:33N 54°32' E 018°32'0 0.0
2017-Feb-18 22:33N 54°32' E 018°32'0 0.0
2017-Feb-18 21:33N 54°32' E 018°32'0 0.0
2017-Feb-18 20:33N 54°32' E 018°32'0 0.0
2017-Feb-18 19:33N 54°32' E 018°32'0 0.0
2017-Feb-18 18:33N 54°32' E 018°32'0 0.0
2017-Feb-18 17:33N 54°32' E 018°32'0 0.0
2017-Feb-18 16:33N 54°32' E 018°32'0 0.0
2017-Feb-18 15:33N 54°32' E 018°32'0 0.0
2017-Feb-18 14:33N 54°32' E 018°32'0 0.0
2017-Feb-18 13:32N 54°32' E 018°32'0 0.0
2017-Feb-18 12:32N 54°32' E 018°32'0 0.0
2017-Feb-18 11:32N 54°32' E 018°32'0 0.0
2017-Feb-18 10:32N 54°32' E 018°32'0 0.0
2017-Feb-18 09:32N 54°32' E 018°32'0 0.0
2017-Feb-18 08:32N 54°32' E 018°32'0 0.0
2017-Feb-18 07:32N 54°32' E 018°32'0 0.0
2017-Feb-18 06:32N 54°32' E 018°32'0 0.0
2017-Feb-18 05:32N 54°32' E 018°32'0 0.1
2017-Feb-18 04:33N 54°32' E 018°32'7 7.5
2017-Feb-18 03:34N 54°32' E 018°45'8 7.8
2017-Feb-18 02:34N 54°38' E 018°54'7 6.6
2017-Feb-18 01:33N 54°43' E 018°48'9 8.6
2017-Feb-18 00:34N 54°48' E 018°36'9 8.7
2017-Feb-17 23:34N 54°52' E 018°23'8 8.5
2017-Feb-17 22:34N 54°54' E 018°08'103 8.5
2017-Feb-17 10:25N 54°40' E 015°12'8 8.6
2017-Feb-17 09:26N 54°39' E 014°57'9 8.6
2017-Feb-17 08:21N 54°37' E 014°41'18 8.5
2017-Feb-17 06:13N 54°38' E 014°10'710.1
2017-Feb-17 05:34N 54°40' E 013°59'1410.1
2017-Feb-17 04:13N 54°43' E 013°36'2010.4
2017-Feb-17 02:16N 54°41' E 013°01'710.4
2017-Feb-17 01:34N 54°40' E 012°49'1410.6
2017-Feb-17 00:12N 54°34' E 012°26'18 9.9
2017-Feb-16 22:26N 54°24' E 012°01'11 9.7
2017-Feb-16 21:17N 54°26' E 011°43'810.3
2017-Feb-16 20:33N 54°29' E 011°31'1010.5
2017-Feb-16 19:34N 54°34' E 011°14'1010.3
2017-Feb-16 18:34N 54°34' E 010°57'1010.1
2017-Feb-16 17:33N 54°33' E 010°39'50 7.1
2017-Feb-16 10:32N 54°10' E 009°24'8 7.9
2017-Feb-16 09:33N 54°03' E 009°18'8 8.4
2017-Feb-16 08:33N 53°55' E 009°12'4 4.4
2017-Feb-16 07:33N 53°53' E 009°05'7 7.2
2017-Feb-16 06:33N 53°50' E 008°54'8 7.6
2017-Feb-16 05:33N 53°53' E 008°42'8 7.8
2017-Feb-16 04:32N 53°58' E 008°31'9 9.1
2017-Feb-16 03:33N 53°59' E 008°16'1010.0
2017-Feb-16 02:33N 53°58' E 007°59'1110.5
2017-Feb-16 01:27N 53°55' E 007°40'5811.0
2017-Feb-15 20:12N 53°41' E 006°05'34 9.3
2017-Feb-15 16:31N 53°30' E 005°10'8 8.4
2017-Feb-15 15:33N 53°28' E 004°57'19 8.2
2017-Feb-15 13:15N 53°14' E 004°35'6 8.9
2017-Feb-15 12:33N 53°09' E 004°30'9 9.0
2017-Feb-15 11:33N 53°01' E 004°23'9 9.3
2017-Feb-15 10:34N 52°53' E 004°16'10 9.6
2017-Feb-15 09:34N 52°45' E 004°06'1010.0
2017-Feb-15 08:33N 52°38' E 003°55'1110.5
2017-Feb-15 07:33N 52°30' E 003°43'1110.8
2017-Feb-15 06:33N 52°22' E 003°31'1111.1
2017-Feb-15 05:33N 52°14' E 003°19'1111.4
2017-Feb-15 04:32N 52°04' E 003°08'1111.3
2017-Feb-15 03:32N 51°53' E 003°07'9 9.5
2017-Feb-15 02:33N 51°45' E 003°14'9 9.3
2017-Feb-15 01:33N 51°37' E 003°22'8 8.2
2017-Feb-15 00:33N 51°30' E 003°29'7 7.3
2017-Feb-14 23:33N 51°26' E 003°39'9 9.4
2017-Feb-14 22:33N 51°21' E 003°51'7 7.5
2017-Feb-14 21:33N 51°23' E 004°02'10 9.5
2017-Feb-14 20:33N 51°20' E 004°16'3 3.2
2017-Feb-14 19:33N 51°17' E 004°15'0 0.1
2017-Feb-14 18:33N 51°17' E 004°15'1 0.7
2017-Feb-14 17:32N 51°16' E 004°15'0 0.0
2017-Feb-14 16:32N 51°16' E 004°15'0 0.0
2017-Feb-14 15:32N 51°16' E 004°15'0 0.0
2017-Feb-14 14:08N 51°16' E 004°15'0 0.0
2017-Feb-14 13:08N 51°16' E 004°15'0 0.0
2017-Feb-14 12:32N 51°16' E 004°15'0 0.0
2017-Feb-14 11:32N 51°16' E 004°15'0 0.0
2017-Feb-14 10:32N 51°16' E 004°15'0 0.0
2017-Feb-14 09:32N 51°16' E 004°15'0 0.0
2017-Feb-14 07:29N 51°16' E 004°15'0 0.0
2017-Feb-14 05:32N 51°16' E 004°15'0 0.0
2017-Feb-14 03:29N 51°16' E 004°15'0 0.1
2017-Feb-14 02:33N 51°16' E 004°15'1 1.4
2017-Feb-14 01:33N 51°16' E 004°17'6 5.9
2017-Feb-14 00:33N 51°21' E 004°14'7 7.2
2017-Feb-13 23:33N 51°23' E 004°02'5 4.6
2017-Feb-13 22:33N 51°22' E 003°55'7 6.9
2017-Feb-13 21:33N 51°22' E 003°44'6 5.7
2017-Feb-13 20:33N 51°26' E 003°37'6 5.8
2017-Feb-13 19:33N 51°29' E 003°29'7 7.3
2017-Feb-13 18:33N 51°35' E 003°23'8 7.7
2017-Feb-13 17:33N 51°42' E 003°16'6 4.8
2017-Feb-13 16:23N 51°46' E 003°10'3 3.7
2017-Feb-13 15:32N 51°49' E 003°08'4 4.4
2017-Feb-13 14:33N 51°52' E 003°04'8 7.9
2017-Feb-13 13:32N 52°00' E 002°60'8 8.6
2017-Feb-13 12:33N 52°08' E 002°56'9 8.7
2017-Feb-13 11:33N 52°16' E 002°51'39 9.0
2017-Feb-13 07:09N 52°54' E 002°30'5 7.4
2017-Feb-13 06:25N 52°59' E 002°27'6 6.5
2017-Feb-13 05:32N 53°04' E 002°23'6 5.6
2017-Feb-13 04:31N 53°08' E 002°17'6 4.8
2017-Feb-13 03:11N 53°13' E 002°10'  

Dump ship's entire track history